Aviation Digital Data Service (ADDS)

Output produced by METARs form (2206 UTC 23 April 2014)
found at http://aviationweather.gov/adds/metars/
 
KJXN 231740Z 2318/2418 34008G15KT P6SM SKC 
     FM240000 08003KT P6SM BKN140 
     FM241000 11008KT P6SM BKN120